Time;durP1;ratioP1;P1;durP2;ratioP2;P2;SDS_P1;SDS_P2;PMS_P1;PMS_P2;Temp;Humidity;BMP_temperature;BMP_pressure;BME280_temperature;BME280_humidity;BME280_pressure;Samples;Min_cycle;Max_cycle;Signal;HPM_P1;HPM_P2
2021/12/26 00:00:58;;;;;;;9.20;5.50;;;-3.60;99.90;;;;;;4965613;28;20478;-61
2021/12/26 00:03:30;;;;;;;7.53;5.37;;;-3.30;99.90;;;;;;4966515;28;20505;-62
2021/12/26 00:06:06;;;;;;;6.60;4.90;;;-3.20;99.90;;;;;;4966158;28;20902;-61
2021/12/26 00:08:35;;;;;;;9.37;5.30;;;-3.50;99.90;;;;;;4966102;28;20540;-62
2021/12/26 00:11:04;;;;;;;7.83;5.47;;;-3.20;99.90;;;;;;4965343;28;20482;-62
2021/12/26 00:13:33;;;;;;;8.30;5.67;;;-3.20;99.90;;;;;;4966004;28;21146;-63
2021/12/26 00:16:02;;;;;;;12.07;5.97;;;-3.20;99.90;;;;;;4966101;28;20929;-62
2021/12/26 00:18:32;;;;;;;8.77;6.20;;;-3.40;99.90;;;;;;4966258;28;20497;-62
2021/12/26 00:21:01;;;;;;;11.93;6.80;;;-3.20;99.90;;;;;;4965215;28;20487;-62
2021/12/26 00:23:29;;;;;;;12.73;6.97;;;-3.30;99.90;;;;;;4966831;28;21075;-61
2021/12/26 00:25:57;;;;;;;11.87;7.30;;;-3.30;99.90;;;;;;4974280;28;20501;-61
2021/12/26 00:28:25;;;;;;;8.23;5.33;;;-3.50;99.90;;;;;;4970011;28;20832;-61
2021/12/26 00:30:54;;;;;;;9.13;6.80;;;-3.50;99.90;;;;;;4977891;28;20539;-61
2021/12/26 00:33:22;;;;;;;9.20;5.40;;;-3.40;99.90;;;;;;4932070;28;20478;-63
2021/12/26 00:35:54;;;;;;;6.95;5.13;;;-3.30;99.90;;;;;;354534;28;10023628;-62
2021/12/26 00:38:22;;;;;;;10.97;5.87;;;-3.90;99.90;;;;;;4949189;29;20482;-62
2021/12/26 00:40:51;;;;;;;7.80;5.13;;;-4.20;99.90;;;;;;4947515;28;20463;-62
2021/12/26 00:43:19;;;;;;;7.13;4.60;;;-4.60;99.90;;;;;;4946333;28;20859;-62
2021/12/26 00:45:48;;;;;;;8.87;5.37;;;-4.00;99.90;;;;;;4949644;28;20463;-62
2021/12/26 00:48:16;;;;;;;8.83;6.10;;;-3.70;99.90;;;;;;4951580;29;20455;-62
2021/12/26 00:50:44;;;;;;;9.17;5.37;;;-3.50;99.90;;;;;;4950559;28;20473;-61
2021/12/26 00:53:15;;;;;;;7.33;5.27;;;-3.40;99.90;;;;;;4950112;28;20485;-61
2021/12/26 00:55:43;;;;;;;10.53;6.40;;;-3.40;99.90;;;;;;4952855;28;20470;-61
2021/12/26 00:58:12;;;;;;;8.03;5.40;;;-3.40;99.90;;;;;;4960762;28;20474;-61
2021/12/26 01:00:44;;;;;;;7.17;5.50;;;-3.60;99.90;;;;;;4958844;28;20482;-61
2021/12/26 01:03:13;;;;;;;8.10;5.43;;;-4.20;99.90;;;;;;4965324;28;20469;-62
2021/12/26 01:05:44;;;;;;;9.53;5.60;;;-4.00;99.90;;;;;;4959241;28;20469;-62
2021/12/26 01:08:16;;;;;;;7.40;5.30;;;-3.80;99.90;;;;;;4954120;28;21005;-61
2021/12/26 01:10:52;;;;;;;8.77;5.43;;;-3.60;99.90;;;;;;4973305;28;20481;-61
2021/12/26 01:13:29;;;;;;;9.50;6.07;;;-3.40;99.90;;;;;;4971568;28;20536;-61
2021/12/26 01:16:10;;;;;;;7.03;5.27;;;-3.50;99.90;;;;;;4990159;28;20481;-61
2021/12/26 01:18:42;;;;;;;7.33;4.73;;;-3.60;99.90;;;;;;4976616;28;20485;-61
2021/12/26 01:21:18;;;;;;;6.13;4.30;;;-3.70;99.90;;;;;;4993860;28;20465;-61
2021/12/26 01:23:53;;;;;;;6.50;4.53;;;-3.90;99.90;;;;;;4978925;28;20580;-61
2021/12/26 01:26:23;;;;;;;9.43;4.57;;;-3.80;99.90;;;;;;4972537;28;20471;-61
2021/12/26 01:28:51;;;;;;;8.17;5.43;;;-3.70;99.90;;;;;;4954929;28;20841;-61
2021/12/26 01:31:20;;;;;;;9.07;4.40;;;-3.30;99.90;;;;;;4953616;28;20482;-63
2021/12/26 01:33:57;;;;;;;7.17;4.60;;;-3.50;99.90;;;;;;4953038;28;20486;-61
2021/12/26 01:36:48;;;;;;;4.57;3.93;;;-3.40;99.90;;;;;;4948848;28;20505;-61
2021/12/26 01:39:36;;;;;;;5.50;4.07;;;-3.40;99.90;;;;;;4973541;28;20499;-61
2021/12/26 01:42:14;;;;;;;6.30;3.77;;;-3.50;99.90;;;;;;4972650;28;20474;-61
2021/12/26 01:45:06;;;;;;;6.63;3.87;;;-3.40;99.90;;;;;;4957225;28;20514;-61
2021/12/26 01:47:46;;;;;;;5.97;3.90;;;-3.40;99.90;;;;;;4982925;28;20545;-61
2021/12/26 01:50:14;;;;;;;5.63;3.43;;;-3.50;99.90;;;;;;4976664;28;20881;-61
2021/12/26 01:52:43;;;;;;;8.13;3.70;;;-3.50;99.90;;;;;;4970872;28;20469;-62
2021/12/26 01:55:23;;;;;;;5.60;3.70;;;-3.60;99.90;;;;;;4954714;28;21034;-61
2021/12/26 01:57:54;;;;;;;5.30;3.30;;;-3.50;99.90;;;;;;4971094;28;20509;-61
2021/12/26 02:00:23;;;;;;;3.80;3.20;;;-3.60;99.90;;;;;;4972269;28;20544;-61
2021/12/26 02:02:51;;;;;;;5.57;3.97;;;-3.70;99.90;;;;;;4973396;28;20489;-61
2021/12/26 02:05:20;;;;;;;5.87;3.60;;;-4.30;99.90;;;;;;4972063;28;20496;-62
2021/12/26 02:07:50;;;;;;;8.80;4.33;;;-3.90;99.90;;;;;;4972156;28;20984;-61
2021/12/26 02:10:19;;;;;;;6.10;3.53;;;-4.00;99.90;;;;;;4972227;28;20488;-61
2021/12/26 02:12:48;;;;;;;7.77;4.50;;;-3.80;99.90;;;;;;4971963;28;20544;-61
2021/12/26 02:15:17;;;;;;;6.80;4.70;;;-3.70;99.90;;;;;;4970482;28;20556;-61
2021/12/26 02:17:57;;;;;;;10.17;4.80;;;-3.70;99.90;;;;;;4960032;28;20479;-61
2021/12/26 02:20:36;;;;;;;9.40;5.07;;;-3.70;99.90;;;;;;4952352;28;20534;-62
2021/12/26 02:23:12;;;;;;;5.00;4.00;;;-3.70;99.90;;;;;;4959271;28;20489;-61
2021/12/26 02:28:39;;;;;;;5.03;4.00;;;-3.80;99.90;;;;;;4931753;29;21027;-61
2021/12/26 02:31:08;;;;;;;7.43;4.33;;;-3.80;99.90;;;;;;4959126;28;20482;-61
2021/12/26 02:33:36;;;;;;;6.87;4.40;;;-3.90;99.90;;;;;;4932319;28;20488;-62
2021/12/26 02:36:14;;;;;;;3.79;3.12;;;-3.80;99.90;;;;;;548661;28;10022734;-62
2021/12/26 02:38:42;;;;;;;5.60;3.47;;;-4.00;99.90;;;;;;4965317;28;20434;-61
2021/12/26 02:41:10;;;;;;;4.83;3.13;;;-4.00;99.90;;;;;;4953492;28;20474;-61
2021/12/26 02:43:39;;;;;;;5.40;3.20;;;-4.00;99.90;;;;;;4951729;28;20477;-61
2021/12/26 02:46:07;;;;;;;4.60;3.47;;;-3.80;99.90;;;;;;4953537;28;20853;-61
2021/12/26 02:48:39;;;;;;;4.80;3.50;;;-3.40;99.90;;;;;;4951817;28;20482;-61
2021/12/26 02:51:09;;;;;;;3.50;2.97;;;-4.00;99.90;;;;;;4952122;28;20545;-61
2021/12/26 02:53:39;;;;;;;5.33;3.80;;;-4.10;99.90;;;;;;4951639;28;20489;-61
2021/12/26 02:56:08;;;;;;;4.57;3.13;;;-3.70;99.90;;;;;;4951841;28;20483;-61
2021/12/26 02:58:37;;;;;;;7.07;3.60;;;-3.70;99.90;;;;;;4951587;28;20475;-61
2021/12/26 03:01:10;;;;;;;5.40;3.53;;;-3.80;99.90;;;;;;4953286;28;20577;-61
2021/12/26 03:03:42;;;;;;;6.13;3.40;;;-3.90;99.90;;;;;;4951497;28;20478;-61
2021/12/26 03:06:18;;;;;;;4.50;3.00;;;-4.20;99.90;;;;;;4950961;28;20483;-61
2021/12/26 03:08:49;;;;;;;5.63;3.13;;;-4.70;99.90;;;;;;4961598;28;20485;-61
2021/12/26 03:11:17;;;;;;;4.27;3.13;;;-4.30;99.90;;;;;;4991955;28;20476;-61
2021/12/26 03:13:46;;;;;;;5.43;3.37;;;-4.40;99.90;;;;;;4978498;28;20478;-61
2021/12/26 03:16:14;;;;;;;5.50;3.50;;;-4.00;99.90;;;;;;4963244;28;20470;-61
2021/12/26 03:18:42;;;;;;;6.60;3.57;;;-3.90;99.90;;;;;;4989317;28;20537;-61
2021/12/26 03:21:11;;;;;;;6.10;3.97;;;-4.00;99.90;;;;;;4991587;28;20473;-61
2021/12/26 03:23:39;;;;;;;5.90;3.83;;;-4.20;99.90;;;;;;4979402;28;20478;-61
2021/12/26 03:26:09;;;;;;;6.67;4.17;;;-4.40;99.90;;;;;;4970772;28;20492;-60
2021/12/26 03:28:37;;;;;;;4.47;2.93;;;-4.30;99.90;;;;;;4970398;28;20485;-61
2021/12/26 03:31:05;;;;;;;5.30;3.60;;;-4.00;99.90;;;;;;4970756;28;20824;-61
2021/12/26 03:33:37;;;;;;;6.03;3.83;;;-4.00;99.90;;;;;;4970274;28;20484;-61
2021/12/26 03:36:05;;;;;;;3.93;3.23;;;-4.10;99.90;;;;;;4967890;28;20494;-61
2021/12/26 03:38:34;;;;;;;3.87;2.83;;;-4.90;99.90;;;;;;4947677;28;21037;-61
2021/12/26 03:41:20;;;;;;;7.37;3.37;;;-4.60;99.90;;;;;;4960973;28;20483;-61
2021/12/26 03:43:54;;;;;;;5.27;3.53;;;-4.40;99.90;;;;;;4970156;28;20490;-61
2021/12/26 03:46:22;;;;;;;5.53;3.33;;;-4.10;99.90;;;;;;4969753;28;21007;-61
2021/12/26 03:48:52;;;;;;;4.17;3.40;;;-4.30;99.90;;;;;;4970273;28;20478;-61
2021/12/26 03:51:20;;;;;;;5.93;3.47;;;-3.80;99.90;;;;;;4970482;28;20476;-62
2021/12/26 03:53:50;;;;;;;5.47;3.47;;;-3.90;99.90;;;;;;4970461;28;20473;-61
2021/12/26 03:56:20;;;;;;;5.47;3.43;;;-4.20;99.90;;;;;;4970596;28;20493;-61
2021/12/26 03:59:06;;;;;;;4.97;3.30;;;-4.10;99.90;;;;;;4970290;28;20536;-61
2021/12/26 04:01:34;;;;;;;5.47;3.47;;;-4.10;99.90;;;;;;4971729;28;20854;-61
2021/12/26 04:04:03;;;;;;;4.80;3.20;;;-3.90;99.90;;;;;;4974038;28;20446;-61
2021/12/26 04:06:31;;;;;;;3.77;3.10;;;-4.30;99.90;;;;;;4973502;28;20492;-61
2021/12/26 04:09:00;;;;;;;4.13;2.80;;;-4.00;99.90;;;;;;4971578;28;20506;-61
2021/12/26 04:11:29;;;;;;;4.87;3.10;;;-4.60;99.90;;;;;;4962544;28;21020;-61
2021/12/26 04:13:57;;;;;;;5.73;3.20;;;-4.90;99.90;;;;;;4971756;28;20499;-61
2021/12/26 04:16:27;;;;;;;5.63;3.57;;;-4.40;99.90;;;;;;4970232;28;20819;-61
2021/12/26 04:18:56;;;;;;;4.37;3.50;;;-3.90;99.90;;;;;;4970279;28;20466;-61
2021/12/26 04:21:25;;;;;;;5.83;3.50;;;-4.10;99.90;;;;;;4972637;28;20482;-61
2021/12/26 04:23:58;;;;;;;4.77;3.17;;;-4.50;99.90;;;;;;4973859;28;20481;-61
2021/12/26 04:26:26;;;;;;;3.53;2.73;;;-4.60;99.90;;;;;;4975295;28;20475;-61
2021/12/26 04:28:55;;;;;;;4.10;3.20;;;-4.70;99.90;;;;;;4990134;28;20997;-61
2021/12/26 04:31:24;;;;;;;4.20;2.87;;;-4.60;99.90;;;;;;4975362;28;20473;-61
2021/12/26 04:34:10;;;;;;;3.06;2.53;;;-4.30;99.90;;;;;;4489229;28;10001378;-61
2021/12/26 04:36:39;;;;;;;4.88;2.70;;;-4.10;99.90;;;;;;2054086;28;10001909;-61
2021/12/26 04:39:08;;;;;;;5.33;3.30;;;-4.00;99.90;;;;;;4965824;28;20267;-61
2021/12/26 04:41:36;;;;;;;4.87;3.13;;;-3.80;99.90;;;;;;4955488;28;20565;-61
2021/12/26 04:44:35;;;;;;;4.50;2.83;;;-4.20;99.90;;;;;;4938011;28;20581;-61
2021/12/26 04:47:26;;;;;;;5.23;2.87;;;-4.80;99.90;;;;;;4974415;28;20489;-61
2021/12/26 04:49:54;;;;;;;7.70;3.13;;;-5.00;99.90;;;;;;4989864;28;20474;-61
2021/12/26 04:52:30;;;;;;;4.30;3.30;;;-4.90;99.90;;;;;;4972850;28;20557;-62
2021/12/26 04:55:01;;;;;;;6.63;3.43;;;-4.70;99.90;;;;;;4973131;28;20475;-62
2021/12/26 04:57:29;;;;;;;6.00;3.57;;;-4.70;99.90;;;;;;4973016;28;20472;-61
2021/12/26 04:59:58;;;;;;;4.53;3.00;;;-4.70;99.90;;;;;;4975078;28;20473;-61
2021/12/26 05:02:28;;;;;;;7.27;3.40;;;-4.70;99.90;;;;;;4974332;28;20489;-61
2021/12/26 05:04:57;;;;;;;3.93;2.97;;;-4.60;99.90;;;;;;4974633;28;20480;-61
2021/12/26 05:07:25;;;;;;;5.20;3.17;;;-4.40;99.90;;;;;;4971931;28;20481;-61
2021/12/26 05:09:53;;;;;;;6.30;3.37;;;-4.50;99.90;;;;;;4974488;28;20469;-61
2021/12/26 05:12:22;;;;;;;4.10;2.80;;;-4.80;99.90;;;;;;4974243;28;20501;-61
2021/12/26 05:14:52;;;;;;;4.03;2.50;;;-5.60;99.90;;;;;;4974246;28;20466;-61
2021/12/26 05:17:26;;;;;;;3.23;2.27;;;-5.90;99.90;;;;;;4974292;28;20533;-61
2021/12/26 05:19:55;;;;;;;4.57;2.37;;;-5.20;99.90;;;;;;4973122;28;20480;-61
2021/12/26 05:22:24;;;;;;;3.03;1.87;;;-5.30;99.90;;;;;;4972709;28;20830;-61
2021/12/26 05:24:53;;;;;;;3.57;2.10;;;-5.20;99.90;;;;;;4972863;28;20472;-61
2021/12/26 05:27:21;;;;;;;2.63;2.00;;;-5.10;99.90;;;;;;4974209;28;20887;-61
2021/12/26 05:29:49;;;;;;;3.97;2.47;;;-4.90;99.90;;;;;;4972597;28;20475;-61
2021/12/26 05:32:22;;;;;;;4.33;2.60;;;-4.50;99.90;;;;;;4971440;28;21009;-60
2021/12/26 05:34:52;;;;;;;3.90;2.60;;;-4.40;99.90;;;;;;4972598;28;20910;-61
2021/12/26 05:37:20;;;;;;;4.70;2.53;;;-4.60;99.90;;;;;;4969410;28;20969;-61
2021/12/26 05:39:48;;;;;;;4.37;2.50;;;-4.80;99.90;;;;;;4978546;28;20471;-61
2021/12/26 05:42:16;;;;;;;3.80;2.50;;;-4.50;99.90;;;;;;4973669;28;20485;-61
2021/12/26 05:44:46;;;;;;;6.57;2.47;;;-4.40;99.90;;;;;;4973744;28;20484;-61
2021/12/26 05:47:14;;;;;;;4.40;2.47;;;-4.80;99.90;;;;;;4972465;28;20517;-61
2021/12/26 05:49:58;;;;;;;3.50;2.57;;;-4.50;99.90;;;;;;4972620;28;20483;-61
2021/12/26 05:52:28;;;;;;;3.53;2.53;;;-4.70;99.90;;;;;;4972342;28;20481;-60
2021/12/26 05:54:59;;;;;;;3.47;2.27;;;-4.80;99.90;;;;;;4965006;28;20471;-61
2021/12/26 05:57:28;;;;;;;4.13;2.53;;;-5.40;99.90;;;;;;4964450;28;20478;-61
2021/12/26 05:59:57;;;;;;;4.37;2.70;;;-5.50;99.90;;;;;;4972293;28;20909;-61
2021/12/26 06:02:25;;;;;;;5.83;2.83;;;-5.50;99.90;;;;;;4972847;28;20873;-61
2021/12/26 06:04:54;;;;;;;3.47;2.60;;;-5.70;99.90;;;;;;4972184;28;20480;-61
2021/12/26 06:07:23;;;;;;;4.27;2.77;;;-5.60;99.90;;;;;;4971999;28;20512;-61
2021/12/26 06:09:52;;;;;;;4.23;2.70;;;-5.60;99.90;;;;;;4972215;28;20474;-61
2021/12/26 06:12:20;;;;;;;5.27;3.20;;;-5.10;99.90;;;;;;4971839;28;20798;-61
2021/12/26 06:14:49;;;;;;;4.50;3.33;;;-5.50;99.90;;;;;;4971774;28;20870;-61
2021/12/26 06:17:17;;;;;;;7.47;3.20;;;-5.80;99.90;;;;;;4971707;28;20589;-61
2021/12/26 06:20:11;;;;;;;7.37;3.43;;;-5.90;99.90;;;;;;4972924;28;20492;-61
2021/12/26 06:22:45;;;;;;;5.57;3.77;;;-4.90;99.90;;;;;;4968877;28;20486;-61
2021/12/26 06:25:32;;;;;;;5.47;3.80;;;-4.50;99.90;;;;;;4961250;28;20476;-61
2021/12/26 06:28:18;;;;;;;4.30;3.90;;;-4.10;99.90;;;;;;4962669;28;20476;-61
2021/12/26 06:31:05;;;;;;;6.43;4.00;;;-3.80;99.90;;;;;;4971644;28;20912;-61
2021/12/26 06:34:12;;;;;;;6.38;4.00;;;-3.70;99.90;;;;;;3664110;28;10024508;-61
2021/12/26 06:37:00;;;;;;;5.15;3.45;;;-4.30;99.90;;;;;;3769589;28;10002033;-61
2021/12/26 06:39:49;;;;;;;5.67;4.17;;;-4.50;99.90;;;;;;4965797;28;20249;-61
2021/12/26 06:42:40;;;;;;;7.33;4.57;;;-4.40;99.90;;;;;;4966723;28;20495;-61
2021/12/26 06:45:27;;;;;;;6.73;4.20;;;-4.80;99.90;;;;;;4962963;28;20579;-61
2021/12/26 06:48:14;;;;;;;6.47;4.50;;;-4.80;99.90;;;;;;4944173;28;20485;-61
2021/12/26 06:50:48;;;;;;;7.47;4.73;;;-4.40;99.90;;;;;;4939106;28;21020;-61
2021/12/26 06:53:21;;;;;;;6.73;4.53;;;-5.00;99.90;;;;;;4952162;28;20485;-61
2021/12/26 06:55:50;;;;;;;5.17;4.33;;;-5.40;99.90;;;;;;4972372;28;20814;-61
2021/12/26 06:58:19;;;;;;;6.13;4.07;;;-5.20;99.90;;;;;;4972266;28;20485;-61
2021/12/26 07:00:48;;;;;;;8.97;5.13;;;-5.10;99.90;;;;;;4956388;28;21055;-61
2021/12/26 07:03:17;;;;;;;7.80;5.50;;;-4.90;99.90;;;;;;4948795;28;21002;-61
2021/12/26 07:05:47;;;;;;;14.67;5.90;;;-4.60;99.90;;;;;;4951512;28;20529;-61
2021/12/26 07:08:19;;;;;;;10.70;5.43;;;-4.50;99.90;;;;;;4967552;28;20957;-61
2021/12/26 07:10:55;;;;;;;8.30;5.53;;;-4.50;99.90;;;;;;4951680;28;20843;-61
2021/12/26 07:13:23;;;;;;;11.83;5.37;;;-4.30;99.90;;;;;;4951313;28;20481;-61
2021/12/26 07:15:52;;;;;;;9.60;6.33;;;-4.00;99.90;;;;;;4951472;28;20554;-61
2021/12/26 07:18:21;;;;;;;8.00;6.17;;;-3.70;99.90;;;;;;4962427;28;20472;-62
2021/12/26 07:20:50;;;;;;;9.23;7.07;;;-3.80;99.90;;;;;;4970218;28;20460;-61
2021/12/26 07:23:36;;;;;;;9.30;5.73;;;-3.80;99.90;;;;;;4964541;28;20486;-62
2021/12/26 07:26:12;;;;;;;11.53;6.77;;;-3.80;99.90;;;;;;4970783;28;20480;-61
2021/12/26 07:28:40;;;;;;;7.53;6.00;;;-4.00;99.90;;;;;;4970500;28;20552;-61
2021/12/26 07:31:21;;;;;;;9.40;6.77;;;-4.10;99.90;;;;;;4970795;28;20548;-61
2021/12/26 07:33:57;;;;;;;7.23;5.60;;;-3.90;99.90;;;;;;4970703;28;20477;-61
2021/12/26 07:36:29;;;;;;;7.73;5.60;;;-4.20;99.90;;;;;;4970169;28;20895;-62
2021/12/26 07:39:03;;;;;;;12.07;6.30;;;-4.90;99.90;;;;;;4969951;28;20498;-61
2021/12/26 07:41:38;;;;;;;7.93;5.67;;;-4.40;99.90;;;;;;4969909;28;20491;-61
2021/12/26 07:44:19;;;;;;;8.87;6.23;;;-4.10;99.90;;;;;;4968101;28;20466;-61
2021/12/26 07:47:17;;;;;;;9.80;6.77;;;-4.00;99.90;;;;;;4962839;28;20474;-61
2021/12/26 07:49:46;;;;;;;10.27;6.47;;;-3.90;99.90;;;;;;4957691;28;20564;-61
2021/12/26 07:52:37;;;;;;;10.23;7.10;;;-3.70;99.90;;;;;;4954588;28;20616;-61
2021/12/26 07:55:24;;;;;;;9.73;7.00;;;-3.50;99.90;;;;;;4968341;28;20476;-61
2021/12/26 07:58:13;;;;;;;11.60;6.87;;;-4.00;99.90;;;;;;4971356;28;20558;-61
2021/12/26 08:01:00;;;;;;;11.40;8.00;;;-3.90;99.90;;;;;;4955521;28;20490;-62
2021/12/26 08:03:48;;;;;;;11.80;6.93;;;-4.40;99.90;;;;;;4953364;28;20556;-61
2021/12/26 08:06:35;;;;;;;10.13;6.30;;;-4.80;99.90;;;;;;4974814;28;20487;-61
2021/12/26 08:09:03;;;;;;;6.63;5.47;;;-5.10;99.90;;;;;;4966802;28;20495;-61
2021/12/26 08:11:32;;;;;;;11.90;6.57;;;-5.40;99.90;;;;;;4965019;28;20469;-61
2021/12/26 08:14:02;;;;;;;11.13;6.83;;;-5.50;99.90;;;;;;4964220;28;20472;-62
2021/12/26 08:16:30;;;;;;;9.70;6.37;;;-5.70;99.90;;;;;;4974616;28;20480;-62
2021/12/26 08:18:59;;;;;;;8.93;6.00;;;-5.70;99.90;;;;;;4964584;28;20955;-62
2021/12/26 08:21:27;;;;;;;12.90;8.03;;;-5.50;99.90;;;;;;4961960;28;20469;-61
2021/12/26 08:23:55;;;;;;;11.60;9.03;;;-5.60;99.90;;;;;;4974759;28;20909;-62
2021/12/26 08:26:23;;;;;;;9.53;6.47;;;-5.40;99.90;;;;;;4974273;28;20473;-61
2021/12/26 08:28:51;;;;;;;10.83;6.87;;;-5.40;99.90;;;;;;4974618;28;20471;-61
2021/12/26 08:31:22;;;;;;;9.63;6.23;;;-5.20;99.90;;;;;;4970109;28;20499;-61
2021/12/26 08:34:08;;;;;;;9.54;6.42;;;-5.10;99.90;;;;;;4467905;28;10001378;-61
2021/12/26 08:36:36;;;;;;;13.13;6.30;;;-5.20;99.90;;;;;;2055706;28;10002023;-61
2021/12/26 08:39:04;;;;;;;13.23;6.23;;;-5.00;99.90;;;;;;4972255;28;20567;-61
2021/12/26 08:41:32;;;;;;;10.63;7.23;;;-4.70;99.90;;;;;;4966595;28;20535;-62
2021/12/26 08:44:01;;;;;;;9.70;6.70;;;-4.60;99.90;;;;;;4966476;28;20482;-62
2021/12/26 08:46:30;;;;;;;11.90;7.03;;;-4.70;99.90;;;;;;4966506;28;20509;-62
2021/12/26 08:48:58;;;;;;;9.67;6.07;;;-4.80;99.90;;;;;;4967219;28;20518;-63
2021/12/26 08:51:27;;;;;;;9.47;6.07;;;-5.10;99.90;;;;;;4967334;28;21131;-62
2021/12/26 08:53:55;;;;;;;10.33;6.57;;;-4.90;99.90;;;;;;4967353;28;21028;-62
2021/12/26 08:56:23;;;;;;;7.40;5.67;;;-4.80;99.90;;;;;;4966104;28;20504;-61
2021/12/26 08:58:51;;;;;;;8.23;5.67;;;-4.50;99.90;;;;;;4966723;28;20941;-63
2021/12/26 09:01:19;;;;;;;8.07;5.17;;;-4.60;99.90;;;;;;4968338;28;20558;-62
2021/12/26 09:03:48;;;;;;;7.77;5.80;;;-4.70;99.90;;;;;;4968920;28;20579;-62
2021/12/26 09:06:17;;;;;;;9.70;6.50;;;-4.90;99.90;;;;;;4967960;28;20958;-62
2021/12/26 09:08:45;;;;;;;10.43;6.30;;;-5.10;99.90;;;;;;4968907;28;20497;-62
2021/12/26 09:11:13;;;;;;;7.93;5.73;;;-5.10;99.90;;;;;;4969123;28;20485;-62
2021/12/26 09:13:41;;;;;;;8.77;5.73;;;-5.10;99.90;;;;;;4968795;28;20484;-62
2021/12/26 09:16:10;;;;;;;7.87;5.17;;;-5.20;99.90;;;;;;4967273;28;20517;-62
2021/12/26 09:18:39;;;;;;;8.93;5.37;;;-5.40;99.90;;;;;;4968401;28;20482;-62
2021/12/26 09:21:08;;;;;;;9.23;6.10;;;-5.40;99.90;;;;;;4968255;28;20833;-62
2021/12/26 09:23:36;;;;;;;12.27;6.17;;;-5.40;99.90;;;;;;4968608;28;20492;-61
2021/12/26 09:26:05;;;;;;;10.90;8.07;;;-5.20;99.90;;;;;;4967372;28;20605;-61
2021/12/26 09:28:36;;;;;;;9.10;6.57;;;-5.30;99.90;;;;;;4968665;28;20490;-62
2021/12/26 09:31:05;;;;;;;8.33;6.80;;;-5.10;99.90;;;;;;4968679;28;20565;-62
2021/12/26 09:33:34;;;;;;;9.93;7.03;;;-5.20;99.90;;;;;;4968321;28;20557;-62
2021/12/26 09:36:02;;;;;;;12.40;6.83;;;-5.10;99.90;;;;;;4967496;28;21056;-62
2021/12/26 09:38:32;;;;;;;9.17;6.17;;;-5.00;99.90;;;;;;4968191;28;20484;-61
2021/12/26 09:41:00;;;;;;;8.83;6.47;;;-4.90;99.90;;;;;;4968417;28;20485;-62
2021/12/26 09:43:28;;;;;;;9.57;6.40;;;-4.90;99.90;;;;;;4968594;28;21037;-62
2021/12/26 09:45:56;;;;;;;6.87;5.27;;;-4.60;99.90;;;;;;4967860;28;20557;-62
2021/12/26 09:48:24;;;;;;;7.23;5.27;;;-4.40;99.90;;;;;;4968556;28;20481;-62
2021/12/26 09:50:53;;;;;;;8.37;4.67;;;-4.50;99.90;;;;;;4968774;28;20578;-62
2021/12/26 09:53:23;;;;;;;10.43;5.80;;;-4.00;99.90;;;;;;4968154;28;20484;-62
2021/12/26 09:55:53;;;;;;;4.97;4.47;;;-3.70;99.90;;;;;;4966853;28;21679;-62
2021/12/26 09:58:21;;;;;;;6.27;4.40;;;-3.60;99.90;;;;;;4968181;28;20986;-62
2021/12/26 10:00:49;;;;;;;7.47;4.43;;;-3.90;99.90;;;;;;4967817;28;20466;-63
2021/12/26 10:03:22;;;;;;;7.07;4.57;;;-3.50;99.90;;;;;;4967695;28;20497;-62
2021/12/26 10:06:10;;;;;;;8.33;4.87;;;-3.10;99.90;;;;;;4966652;28;20996;-63
2021/12/26 10:08:53;;;;;;;5.13;4.43;;;-3.50;99.90;;;;;;4967339;28;20510;-62
2021/12/26 10:11:25;;;;;;;5.77;3.93;;;-3.70;99.90;;;;;;4967848;28;20504;-62
2021/12/26 10:13:56;;;;;;;6.90;4.47;;;-3.70;99.90;;;;;;4967613;28;20575;-62
2021/12/26 10:16:26;;;;;;;5.57;3.97;;;-3.70;99.90;;;;;;4966526;28;21015;-63
2021/12/26 10:18:55;;;;;;;6.23;4.10;;;-3.80;99.90;;;;;;4966443;28;20543;-62
2021/12/26 10:21:30;;;;;;;8.50;4.60;;;-3.50;99.90;;;;;;4967061;28;20462;-63
2021/12/26 10:24:01;;;;;;;6.37;4.03;;;-3.60;99.90;;;;;;4966955;28;21081;-62
2021/12/26 10:26:34;;;;;;;5.37;4.00;;;-3.50;99.90;;;;;;4980095;28;20478;-62
2021/12/26 10:29:08;;;;;;;5.77;4.53;;;-3.60;99.90;;;;;;4967508;28;20522;-62
2021/12/26 10:31:38;;;;;;;6.27;4.47;;;-3.50;99.90;;;;;;4967594;28;21082;-63
2021/12/26 10:34:07;;;;;;;6.30;4.10;;;-3.40;99.90;;;;;;4935249;28;20500;-63
2021/12/26 10:36:44;;;;;;;7.63;4.93;;;-3.40;99.90;;;;;;994164;28;10001986;-63
2021/12/26 10:39:17;;;;;;;8.10;4.53;;;-3.30;99.90;;;;;;4968170;28;20247;-63
2021/12/26 10:41:49;;;;;;;5.67;4.27;;;-3.20;99.90;;;;;;4946249;28;20486;-63
2021/12/26 10:44:32;;;;;;;7.37;5.20;;;-2.90;99.90;;;;;;4947853;28;20907;-63
2021/12/26 10:47:06;;;;;;;7.23;4.37;;;-2.90;99.90;;;;;;4946000;28;20544;-63
2021/12/26 10:49:44;;;;;;;5.17;3.60;;;-2.90;99.90;;;;;;4947899;28;20911;-63
2021/12/26 10:52:17;;;;;;;7.53;3.73;;;-2.90;99.90;;;;;;4947949;28;20572;-63
2021/12/26 10:54:51;;;;;;;5.00;4.00;;;-2.60;99.90;;;;;;4947155;28;20490;-63
2021/12/26 10:57:24;;;;;;;6.80;4.67;;;-2.70;99.90;;;;;;4947558;28;20586;-63
2021/12/26 11:00:01;;;;;;;4.97;3.83;;;-2.70;99.90;;;;;;4947231;28;20486;-63
2021/12/26 11:02:40;;;;;;;6.00;3.90;;;-2.60;99.90;;;;;;4947258;28;20506;-63
2021/12/26 11:05:11;;;;;;;5.87;3.97;;;-2.50;99.90;;;;;;4946849;28;20490;-63
2021/12/26 11:07:49;;;;;;;6.00;3.70;;;-2.40;99.90;;;;;;4947594;28;20926;-63
2021/12/26 11:10:22;;;;;;;5.77;4.23;;;-2.10;99.90;;;;;;4947856;28;20525;-63
2021/12/26 11:12:54;;;;;;;8.20;3.60;;;-2.30;99.90;;;;;;4947492;28;20506;-63
2021/12/26 11:15:26;;;;;;;5.63;4.07;;;-2.20;99.90;;;;;;4946472;28;22097;-64
2021/12/26 11:17:56;;;;;;;5.47;3.90;;;-2.20;99.90;;;;;;4947758;28;20514;-63
2021/12/26 11:20:28;;;;;;;5.60;3.70;;;-2.30;99.90;;;;;;4948328;28;20546;-64
2021/12/26 11:22:57;;;;;;;7.07;3.83;;;-2.10;99.90;;;;;;4974906;28;20478;-64
2021/12/26 11:25:27;;;;;;;5.97;4.00;;;-2.00;99.90;;;;;;4967780;28;20504;-63
2021/12/26 11:27:56;;;;;;;6.70;4.10;;;-2.00;99.90;;;;;;4964202;28;20904;-63
2021/12/26 11:30:25;;;;;;;4.40;3.30;;;-2.00;99.90;;;;;;4963810;28;20899;-64
2021/12/26 11:32:53;;;;;;;5.77;3.80;;;-2.00;99.90;;;;;;4975494;28;20466;-64
2021/12/26 11:35:22;;;;;;;5.23;3.70;;;-1.70;99.90;;;;;;4971787;28;20804;-63
2021/12/26 11:37:51;;;;;;;8.63;3.67;;;-1.70;99.90;;;;;;4972841;28;20470;-63
2021/12/26 11:40:41;;;;;;;4.10;3.50;;;-1.70;99.90;;;;;;4990028;28;20901;-63
2021/12/26 11:44:05;;;;;;;5.90;3.60;;;-1.70;99.90;;;;;;4981004;28;20850;-64
2021/12/26 11:47:21;;;;;;;6.83;3.87;;;-1.70;99.90;;;;;;4951641;28;20890;-63
2021/12/26 11:50:35;;;;;;;8.80;4.00;;;-1.70;99.90;;;;;;4939134;28;20475;-63
2021/12/26 11:53:36;;;;;;;6.37;3.57;;;-1.60;99.90;;;;;;4952379;28;20969;-63
2021/12/26 11:56:26;;;;;;;4.80;3.40;;;-1.60;99.90;;;;;;4965362;28;20478;-63
2021/12/26 11:59:24;;;;;;;8.00;4.10;;;-1.60;99.90;;;;;;4971672;28;20560;-63
2021/12/26 12:01:52;;;;;;;5.47;3.27;;;-1.70;99.90;;;;;;4968509;28;20469;-64
2021/12/26 12:04:23;;;;;;;4.63;3.33;;;-1.60;99.90;;;;;;4971462;28;20492;-63
2021/12/26 12:06:54;;;;;;;4.43;3.53;;;-1.70;99.90;;;;;;4971698;28;20467;-63
2021/12/26 12:09:28;;;;;;;5.63;3.47;;;-1.60;99.90;;;;;;4955551;28;20503;-63
2021/12/26 12:11:58;;;;;;;5.17;3.43;;;-1.60;99.90;;;;;;4963255;28;20474;-63
2021/12/26 12:14:47;;;;;;;3.90;3.10;;;-1.60;99.90;;;;;;4959779;28;21025;-63
2021/12/26 12:17:17;;;;;;;5.13;3.13;;;-1.50;99.90;;;;;;4971383;28;20494;-63
2021/12/26 12:20:08;;;;;;;3.97;2.73;;;-1.60;99.90;;;;;;4971329;28;20478;-63
2021/12/26 12:22:37;;;;;;;5.73;3.40;;;-1.60;99.90;;;;;;4970925;28;21064;-63
2021/12/26 12:25:39;;;;;;;6.87;3.57;;;-1.60;99.90;;;;;;4971441;28;20478;-63
2021/12/26 12:28:09;;;;;;;7.77;4.03;;;-1.50;99.90;;;;;;4898275;29;20500;-63
2021/12/26 12:30:40;;;;;;;6.37;3.90;;;-1.40;99.90;;;;;;4892150;29;20525;-63
2021/12/26 12:33:17;;;;;;;6.63;3.60;;;-1.50;99.90;;;;;;4912391;28;21099;-63
2021/12/26 12:35:55;;;;;;;3.40;2.70;;;-1.50;99.90;;;;;;996406;28;10023635;-63
2021/12/26 12:38:29;;;;;;;4.67;2.83;;;-1.60;99.90;;;;;;4967330;28;20429;-63
2021/12/26 12:41:38;;;;;;;5.17;3.60;;;-1.50;99.90;;;;;;4952467;28;21059;-63
2021/12/26 12:44:22;;;;;;;4.13;2.90;;;-1.50;99.90;;;;;;4970457;28;20553;-63
2021/12/26 12:46:57;;;;;;;4.27;3.17;;;-1.60;99.90;;;;;;4968435;28;20482;-64
2021/12/26 12:49:47;;;;;;;5.37;3.13;;;-1.60;99.90;;;;;;4981354;28;20981;-63
2021/12/26 12:52:37;;;;;;;6.67;3.40;;;-1.60;99.90;;;;;;4972623;28;20494;-63
2021/12/26 12:55:07;;;;;;;6.40;3.40;;;-1.60;99.90;;;;;;4968280;28;20494;-64
2021/12/26 12:57:39;;;;;;;4.80;3.20;;;-1.60;99.90;;;;;;4968262;28;20496;-63
2021/12/26 13:00:40;;;;;;;4.60;3.20;;;-1.60;99.90;;;;;;4968813;28;20517;-64
2021/12/26 13:03:16;;;;;;;5.13;3.10;;;-1.70;99.90;;;;;;4968827;28;20556;-64
2021/12/26 13:05:45;;;;;;;6.53;3.07;;;-1.70;99.90;;;;;;4968740;28;20552;-64
2021/12/26 13:08:15;;;;;;;5.10;2.73;;;-1.70;99.90;;;;;;4967896;28;20484;-63
2021/12/26 13:10:44;;;;;;;9.37;4.30;;;-1.70;99.90;;;;;;4968774;28;20536;-64
2021/12/26 13:13:16;;;;;;;6.80;3.70;;;-1.60;99.90;;;;;;4968489;28;20882;-64
2021/12/26 13:15:56;;;;;;;4.67;3.30;;;-1.60;99.90;;;;;;4968716;28;21029;-64
2021/12/26 13:18:27;;;;;;;6.30;3.43;;;-1.70;99.90;;;;;;4967814;28;20995;-64
2021/12/26 13:20:59;;;;;;;5.07;2.90;;;-1.60;99.90;;;;;;4969144;28;21141;-64